Time;durP1;ratioP1;P1;durP2;ratioP2;P2;SDS_P1;SDS_P2;PMS_P1;PMS_P2;Temp;Humidity;BMP_temperature;BMP_pressure;BME280_temperature;BME280_humidity;BME280_pressure;Samples;Min_cycle;Max_cycle;Signal;HPM_P1;HPM_P2
2023/01/20 00:01:38;;;;;;;0.90;0.90;;;-0.50;70.60;;;-2.09;59.65;94129.84;4993098;28;20268;-33
2023/01/20 00:04:05;;;;;;;0.80;0.80;;;-0.60;70.60;;;-2.10;59.66;94130.78;5061003;28;20179;-40
2023/01/20 00:06:33;;;;;;;0.80;0.80;;;-0.60;70.60;;;-2.15;59.82;94123.50;4993742;28;20226;-34
2023/01/20 00:09:03;;;;;;;1.00;1.00;;;-0.60;70.60;;;-2.18;60.09;94123.75;4993533;28;20226;-39
2023/01/20 00:11:30;;;;;;;0.80;0.80;;;-0.60;70.80;;;-2.17;59.88;94127.13;5044221;28;20190;-37
2023/01/20 00:14:01;;;;;;;0.90;0.90;;;-0.60;70.70;;;-2.19;59.75;94122.13;4992767;28;20552;-39
2023/01/20 00:16:30;;;;;;;0.80;0.80;;;-0.70;70.60;;;-2.21;59.93;94115.50;4993500;28;20189;-38
2023/01/20 00:18:58;;;;;;;0.80;0.80;;;-0.70;70.90;;;-2.20;60.03;94114.56;5060084;28;20209;-36
2023/01/20 00:21:25;;;;;;;1.00;1.00;;;-0.70;70.80;;;-2.20;60.12;94119.72;5060523;28;20203;-33
2023/01/20 00:23:53;;;;;;;0.90;0.90;;;-0.70;70.90;;;-2.21;60.91;94118.06;4993456;28;20512;-39
2023/01/20 00:26:22;;;;;;;0.80;0.80;;;-0.70;71.20;;;-2.22;60.79;94117.28;4993248;28;20230;-38
2023/01/20 00:28:53;;;;;;;0.80;0.80;;;-0.70;71.20;;;-2.19;60.56;94118.75;4993224;28;20555;-36
2023/01/20 00:31:26;;;;;;;0.80;0.80;;;-0.70;71.40;;;-2.19;60.48;94123.91;4993358;28;20182;-39
2023/01/20 00:33:57;;;;;;;0.80;0.80;;;-0.70;71.40;;;-2.19;60.64;94123.91;4993831;28;20207;-40
2023/01/20 00:36:27;;;;;;;0.80;0.80;;;-0.70;71.40;;;-2.20;60.50;94123.06;4992353;28;20201;-38
2023/01/20 00:38:55;;;;;;;0.90;0.90;;;-0.70;71.40;;;-2.20;60.41;94125.63;5060012;28;20588;-40
2023/01/20 00:41:22;;;;;;;0.90;0.90;;;-0.70;71.30;;;-2.20;60.41;94125.63;4993131;28;20204;-40
2023/01/20 00:43:49;;;;;;;0.80;0.80;;;-0.70;71.20;;;-2.20;60.39;94127.41;4993309;28;20225;-36
2023/01/20 00:46:16;;;;;;;0.80;0.80;;;-0.70;71.10;;;-2.22;60.32;94127.56;5060259;28;20750;-32
2023/01/20 00:48:43;;;;;;;0.90;0.90;;;-0.70;71.00;;;-2.23;60.37;94132.81;4993224;28;20301;-31
2023/01/20 00:51:11;;;;;;;0.90;0.90;;;-0.70;71.10;;;-2.22;60.34;94131.84;4993642;28;20648;-31
2023/01/20 00:53:38;;;;;;;0.80;0.80;;;-0.70;71.40;;;-2.21;60.17;94134.31;5059950;28;20201;-39
2023/01/20 00:56:06;;;;;;;0.80;0.80;;;-0.70;71.40;;;-2.22;60.07;94137.00;4993082;28;20317;-38
2023/01/20 00:58:34;;;;;;;0.90;0.90;;;-0.80;71.30;;;-2.25;60.15;94140.66;5059824;28;20263;-36
2023/01/20 01:01:01;;;;;;;0.80;0.80;;;-0.80;71.30;;;-2.24;60.24;94141.47;4992829;28;20197;-37
2023/01/20 01:03:28;;;;;;;0.80;0.80;;;-0.80;71.50;;;-2.23;60.50;94140.50;5059867;28;20280;-36
2023/01/20 01:06:10;;;;;;;0.90;0.90;;;-0.80;71.70;;;-2.22;60.47;94135.25;4993031;28;20289;-34
2023/01/20 01:08:37;;;;;;;0.80;0.80;;;-0.80;72.10;;;-2.21;60.19;94134.31;5059676;28;20224;-37
2023/01/20 01:11:05;;;;;;;0.80;0.80;;;-0.70;72.60;;;-2.21;60.33;94123.22;5059508;28;20212;-34
2023/01/20 01:13:33;;;;;;;0.80;0.80;;;-0.70;71.70;;;-2.21;60.07;94133.50;4992654;28;20269;-37
2023/01/20 01:16:00;;;;;;;0.90;0.90;;;-0.70;71.50;;;-2.20;59.93;94129.97;5060267;28;20194;-36
2023/01/20 01:18:28;;;;;;;0.80;0.80;;;-0.70;71.50;;;-2.22;60.41;94132.69;5059094;28;20209;-34
2023/01/20 01:20:56;;;;;;;0.80;0.80;;;-0.70;71.80;;;-2.22;60.52;94135.25;5059200;28;20526;-36
2023/01/20 01:23:23;;;;;;;0.90;0.90;;;-0.70;71.80;;;-2.20;60.36;94135.91;4992525;28;20198;-33
2023/01/20 01:25:50;;;;;;;0.93;0.93;;;-0.70;71.70;;;-2.21;60.69;94136.88;4992844;28;20633;-38
2023/01/20 01:28:17;;;;;;;0.80;0.80;;;-0.70;72.10;;;-2.18;60.93;94138.38;4995935;28;20274;-37
2023/01/20 01:30:44;;;;;;;0.70;0.70;;;-0.70;72.30;;;-2.16;60.75;94147.56;5063622;28;20217;-38
2023/01/20 01:33:11;;;;;;;0.80;0.80;;;-0.70;72.30;;;-2.16;60.40;94147.56;5063500;28;20206;-35
2023/01/20 01:35:38;;;;;;;0.80;0.80;;;-0.70;72.20;;;-2.16;60.76;94139.84;4996046;28;20229;-34
2023/01/20 01:38:05;;;;;;;0.80;0.80;;;-0.70;72.10;;;-2.16;60.75;94147.56;4995907;28;20194;-37
2023/01/20 01:40:33;;;;;;;0.90;0.90;;;-0.70;71.90;;;-2.16;60.29;94149.31;4994978;28;20194;-38
2023/01/20 01:43:01;;;;;;;0.77;0.77;;;-0.70;71.70;;;-2.17;59.94;94147.69;4995616;28;20198;-37
2023/01/20 01:45:29;;;;;;;0.70;0.70;;;-0.70;71.50;;;-2.20;60.32;94153.09;4995900;28;20209;-38
2023/01/20 01:48:08;;;;;;;0.90;0.90;;;-0.70;71.50;;;-2.24;60.07;94154.31;4995724;28;20206;-38
2023/01/20 01:50:44;;;;;;;0.80;0.80;;;-0.70;71.40;;;-2.28;60.13;94153.78;4995701;28;20187;-36
2023/01/20 01:53:13;;;;;;;0.80;0.80;;;-0.70;71.40;;;-2.31;60.67;94157.38;5062275;28;20213;-36
2023/01/20 01:55:53;;;;;;;0.90;0.90;;;-0.70;71.70;;;-2.32;60.86;94162.66;4963111;28;20594;-36
2023/01/20 01:58:27;;;;;;;0.80;0.80;;;-0.80;71.80;;;-2.31;60.97;94167.66;4995556;28;20190;-38
2023/01/20 02:00:54;;;;;;;0.80;0.80;;;-0.80;71.80;;;-2.29;60.53;94172.69;4995652;28;20190;-37
2023/01/20 02:03:22;;;;;;;0.90;0.90;;;-0.80;71.60;;;-2.29;60.63;94185.53;4995603;28;20217;-38
2023/01/20 02:05:52;;;;;;;0.70;0.70;;;-0.80;71.90;;;-2.30;60.89;94187.28;4995676;28;20213;-34
2023/01/20 02:08:19;;;;;;;0.80;0.80;;;-0.80;72.20;;;-2.28;61.30;94189.72;5063274;28;20186;-34
2023/01/20 02:10:47;;;;;;;0.80;0.80;;;-0.80;72.20;;;-2.27;61.09;94188.75;4995494;28;20650;-38
2023/01/20 02:13:14;;;;;;;0.90;0.90;;;-0.80;72.10;;;-2.28;60.87;94193.09;4995923;28;20214;-37
2023/01/20 02:15:58;;;;;;;0.80;0.80;;;-0.80;71.90;;;-2.29;60.91;94194.03;4995414;28;20201;-35
2023/01/20 02:19:00;;;;;;;0.80;0.80;;;-0.80;72.10;;;-2.32;60.54;94198.63;4995506;28;20187;-38
2023/01/20 02:22:04;;;;;;;0.80;0.80;;;-0.80;71.90;;;-2.33;60.81;94202.13;5057526;28;20194;-37
2023/01/20 02:25:18;;;;;;;0.80;0.80;;;-0.80;72.10;;;-2.36;60.71;94195.50;4995444;28;20291;-37
2023/01/20 02:28:51;;;;;;;0.80;0.80;;;-0.80;72.10;;;-2.37;62.06;94203.34;5062919;28;20255;-37
2023/01/20 02:32:05;;;;;;;0.80;0.80;;;-0.90;72.80;;;-2.33;62.04;94202.13;5055826;28;20648;-35
2023/01/20 02:35:00;;;;;;;0.90;0.90;;;-0.80;72.80;;;-2.31;62.67;94216.47;5062809;28;20269;-37
2023/01/20 02:38:20;;;;;;;0.70;0.70;;;-0.80;73.40;;;-2.23;63.08;94213.25;4998966;28;20298;-37
2023/01/20 02:41:08;;;;;;;0.80;0.80;;;-0.80;73.70;;;-2.18;62.23;94216.25;5020120;28;20234;-34
2023/01/20 02:44:15;;;;;;;0.90;0.90;;;-0.80;73.50;;;-2.13;61.79;94213.28;4995521;28;20194;-36
2023/01/20 02:46:56;;;;;;;0.80;0.80;;;-0.80;73.30;;;-2.13;61.53;94213.28;5061916;28;20174;-39
2023/01/20 02:49:35;;;;;;;0.90;0.90;;;-0.70;72.80;;;-2.14;61.62;94216.78;4994888;28;20208;-36
2023/01/20 02:52:25;;;;;;;0.90;0.90;;;-0.70;72.60;;;-2.16;61.01;94216.09;5061894;28;20189;-38
2023/01/20 02:54:56;;;;;;;0.80;0.80;;;-0.70;72.30;;;-2.20;60.85;94212.19;5062271;28;20234;-36
2023/01/20 02:57:57;;;;;;;0.80;0.80;;;-0.70;72.00;;;-2.29;60.67;94219.72;4994969;28;20171;-34
2023/01/20 03:00:35;;;;;;;0.90;0.90;;;-0.70;72.10;;;-2.36;61.68;94212.69;5058289;28;20210;-34
2023/01/20 03:03:10;;;;;;;0.90;0.90;;;-0.70;72.30;;;-2.35;61.35;94220.25;5045070;28;20186;-36
2023/01/20 03:05:43;;;;;;;1.00;1.00;;;-0.80;72.20;;;-2.36;61.52;94220.38;5061825;28;20204;-36
2023/01/20 03:08:13;;;;;;;0.80;0.80;;;-0.80;72.40;;;-2.38;61.67;94220.53;4994551;28;20178;-36
2023/01/20 03:10:42;;;;;;;0.90;0.90;;;-0.80;72.60;;;-2.37;61.93;94221.31;4994684;28;20206;-36
2023/01/20 03:13:27;;;;;;;0.82;0.82;;;-0.80;72.70;;;-2.38;61.89;94220.53;4994284;28;20194;-35
2023/01/20 03:16:02;;;;;;;0.90;0.90;;;-0.80;72.70;;;-2.36;61.71;94221.19;5061582;28;20179;-36
2023/01/20 03:18:32;;;;;;;0.80;0.80;;;-0.80;72.60;;;-2.35;61.48;94229.72;5059555;28;20178;-38
2023/01/20 03:21:02;;;;;;;0.80;0.80;;;-0.90;72.30;;;-2.36;61.18;94230.66;5062019;28;20309;-37
2023/01/20 03:23:34;;;;;;;0.90;0.90;;;-0.80;72.30;;;-2.42;61.17;94226.84;5061475;28;20185;-39
2023/01/20 03:26:07;;;;;;;0.70;0.70;;;-0.80;72.20;;;-2.48;60.91;94228.19;4994098;28;20234;-37
2023/01/20 03:28:35;;;;;;;0.80;0.80;;;-0.90;71.90;;;-2.53;61.12;94222.59;4993338;28;20182;-38
2023/01/20 03:31:33;;;;;;;0.80;0.80;;;-0.90;71.90;;;-2.57;61.31;94229.75;4994154;28;20198;-38
2023/01/20 03:34:09;;;;;;;0.77;0.77;;;-0.90;71.90;;;-2.57;62.68;94239.22;5061339;28;20569;-38
2023/01/20 03:36:39;;;;;;;0.80;0.80;;;-1.00;72.60;;;-2.53;63.65;94225.16;5059844;28;20198;-35
2023/01/20 03:39:06;;;;;;;1.00;1.00;;;-1.00;73.00;;;-2.43;63.72;94228.59;4994145;28;20198;-39
2023/01/20 03:42:14;;;;;;;0.90;0.90;;;-1.00;73.50;;;-2.33;63.47;94225.25;5061558;28;20222;-35
2023/01/20 03:45:09;;;;;;;0.80;0.80;;;-1.00;74.00;;;-2.23;63.35;94217.56;5060851;28;20319;-35
2023/01/20 03:48:04;;;;;;;0.90;0.90;;;-0.90;74.10;;;-2.19;63.33;94222.31;5060950;28;20201;-35
2023/01/20 03:50:54;;;;;;;0.80;0.80;;;-0.90;74.40;;;-2.14;63.37;94216.78;4993260;28;20527;-37
2023/01/20 03:53:44;;;;;;;0.70;0.70;;;-0.90;74.20;;;-2.11;63.27;94204.50;4993801;28;20182;-37
2023/01/20 03:56:50;;;;;;;0.80;0.80;;;-0.90;74.30;;;-2.06;63.07;94209.25;5042202;28;20578;-37
2023/01/20 03:59:19;;;;;;;0.90;0.90;;;-0.80;74.40;;;-2.01;63.34;94199.38;5060910;28;20256;-37
2023/01/20 04:01:48;;;;;;;0.90;0.90;;;-0.80;74.30;;;-1.98;63.07;94201.69;5060505;28;20610;-35
2023/01/20 04:04:18;;;;;;;0.80;0.80;;;-0.80;74.30;;;-1.95;63.40;94195.47;4993670;28;20218;-39
2023/01/20 04:06:49;;;;;;;0.80;0.80;;;-0.70;74.40;;;-1.90;63.32;94197.63;4976916;28;20205;-40
2023/01/20 04:09:31;;;;;;;0.82;0.82;;;-0.70;74.50;;;-1.87;63.23;94195.59;5060751;28;20210;-40
2023/01/20 04:11:58;;;;;;;0.80;0.80;;;-0.70;74.60;;;-1.83;63.32;94199.53;5059816;28;20677;-40
2023/01/20 04:14:26;;;;;;;0.80;0.80;;;-0.70;74.50;;;-1.80;63.00;94191.56;5060504;28;20206;-39
2023/01/20 04:16:56;;;;;;;0.80;0.80;;;-0.70;74.40;;;-1.79;63.02;94193.19;5060675;28;20202;-40
2023/01/20 04:19:24;;;;;;;0.70;0.70;;;-0.60;75.10;;;-1.73;62.99;94196.97;4993244;28;20571;-39
2023/01/20 04:22:15;;;;;;;0.80;0.80;;;-0.60;74.30;;;-1.70;62.57;94191.56;5060538;28;20637;-40
2023/01/20 04:25:18;;;;;;;0.90;0.90;;;-0.60;74.30;;;-1.69;62.28;94198.31;5060649;28;20521;-40
2023/01/20 04:27:45;;;;;;;0.80;0.80;;;-0.50;74.00;;;-1.69;62.31;94198.31;5024656;28;20220;-39
2023/01/20 04:30:13;;;;;;;0.80;0.80;;;-0.40;73.80;;;-1.69;61.86;94194.97;4993668;28;20267;-39
2023/01/20 04:32:40;;;;;;;0.70;0.70;;;-0.40;73.60;;;-1.70;61.83;94198.47;5059640;28;20201;-40
2023/01/20 04:35:16;;;;;;;0.90;0.90;;;-0.40;73.50;;;-1.72;62.03;94196.03;5060621;28;20198;-39
2023/01/20 04:37:43;;;;;;;0.80;0.80;;;-0.40;73.50;;;-1.72;61.86;94198.59;4993234;28;20182;-39
2023/01/20 04:40:11;;;;;;;0.80;0.80;;;-0.40;73.30;;;-1.72;61.70;94196.03;4993343;28;20202;-40
2023/01/20 04:42:38;;;;;;;0.90;0.90;;;-0.40;73.20;;;-1.73;61.83;94198.72;4993097;28;20206;-38
2023/01/20 04:45:06;;;;;;;0.90;0.90;;;-0.30;73.10;;;-1.75;62.08;94192.94;4993682;28;20197;-40
2023/01/20 04:47:33;;;;;;;0.90;0.90;;;-0.30;73.10;;;-1.75;62.28;94203.22;5060005;28;20198;-39
2023/01/20 04:50:00;;;;;;;0.80;0.80;;;-0.40;73.40;;;-1.74;62.36;94199.69;4993028;28;20221;-39
2023/01/20 04:52:27;;;;;;;0.70;0.70;;;-0.40;73.60;;;-1.70;62.44;94196.69;5059827;28;20190;-40
2023/01/20 04:54:54;;;;;;;0.80;0.80;;;-0.40;73.80;;;-1.66;62.33;94197.25;4992995;28;20194;-40
2023/01/20 04:57:21;;;;;;;0.90;0.90;;;-0.40;73.70;;;-1.61;62.24;94197.69;4993167;28;20297;-39
2023/01/20 04:59:48;;;;;;;0.80;0.80;;;-0.30;73.80;;;-1.58;62.35;94204.31;4993070;28;20573;-40
2023/01/20 05:02:16;;;;;;;0.80;0.80;;;-0.40;73.60;;;-1.55;61.56;94206.59;4992775;28;20206;-39
2023/01/20 05:04:44;;;;;;;0.80;0.80;;;-0.30;73.50;;;-1.56;62.02;94205.78;4992938;28;20217;-39
2023/01/20 05:07:11;;;;;;;0.80;0.80;;;-0.30;73.40;;;-1.54;61.85;94206.44;5059508;28;20541;-39
2023/01/20 05:09:38;;;;;;;0.80;0.80;;;-0.30;73.30;;;-1.54;61.87;94205.66;4992821;28;20214;-38
2023/01/20 05:12:06;;;;;;;0.80;0.80;;;-0.20;73.20;;;-1.53;61.85;94217.56;4992644;28;20186;-38
2023/01/20 05:14:33;;;;;;;0.80;0.80;;;-0.20;73.30;;;-1.53;61.76;94218.34;4992648;28;20310;-36
2023/01/20 05:17:00;;;;;;;0.90;0.90;;;-0.20;73.20;;;-1.52;61.95;94220.00;4992655;28;20198;-40
2023/01/20 05:19:27;;;;;;;0.80;0.80;;;-0.20;73.10;;;-1.48;61.96;94228.25;4992847;28;20605;-40
2023/01/20 05:21:54;;;;;;;0.70;0.70;;;-0.20;73.10;;;-1.48;61.63;94238.53;4992760;28;20233;-40
2023/01/20 05:24:22;;;;;;;0.88;0.88;;;-0.20;73.10;;;-1.49;61.76;94239.47;5059532;28;20198;-40
2023/01/20 05:26:49;;;;;;;0.90;0.90;;;-0.20;73.10;;;-1.47;61.62;94245.31;4991494;28;20238;-40
2023/01/20 05:29:16;;;;;;;0.90;0.90;;;-0.20;73.00;;;-1.45;61.74;94248.56;4992463;28;20194;-36
2023/01/20 05:31:43;;;;;;;0.90;0.90;;;-0.20;73.00;;;-1.45;61.56;94251.94;5059620;28;20194;-40
2023/01/20 05:34:11;;;;;;;0.80;0.80;;;-0.20;73.00;;;-1.43;61.34;94254.38;4992274;28;20225;-40
2023/01/20 05:36:38;;;;;;;0.80;0.80;;;-0.10;73.00;;;-1.43;61.35;94253.56;4992500;28;20225;-40
2023/01/20 05:39:05;;;;;;;0.70;0.70;;;-0.10;72.90;;;-1.40;61.53;94253.28;4992433;28;20204;-39
2023/01/20 05:41:32;;;;;;;0.80;0.80;;;-0.10;72.80;;;-1.40;61.15;94253.28;4992607;28;20195;-40
2023/01/20 05:44:00;;;;;;;0.80;0.80;;;-0.10;72.80;;;-1.39;61.42;94253.16;4992427;28;20242;-39
2023/01/20 05:46:27;;;;;;;0.80;0.80;;;0.00;72.80;;;-1.38;61.44;94259.13;4992675;28;20200;-39
2023/01/20 05:48:54;;;;;;;0.80;0.80;;;-0.10;72.80;;;-1.38;61.45;94257.38;4991731;28;20245;-39
2023/01/20 05:51:22;;;;;;;0.90;0.90;;;0.00;72.80;;;-1.38;61.41;94259.94;5059744;28;20222;-38
2023/01/20 05:53:49;;;;;;;0.70;0.70;;;0.00;72.80;;;-1.37;61.29;94258.97;4992357;28;20263;-40
2023/01/20 05:56:16;;;;;;;0.90;0.90;;;-0.10;72.80;;;-1.36;61.54;94263.19;4992251;28;20198;-40
2023/01/20 05:58:43;;;;;;;0.90;0.90;;;-0.10;72.80;;;-1.34;61.17;94258.72;4992611;28;20216;-40
2023/01/20 06:01:13;;;;;;;0.80;0.80;;;0.00;72.80;;;-1.35;61.40;94269.94;4992447;28;20293;-40
2023/01/20 06:03:40;;;;;;;0.90;0.90;;;-0.10;72.80;;;-1.36;61.11;94281.19;4992338;28;20587;-39
2023/01/20 06:06:13;;;;;;;0.80;0.80;;;-0.10;72.80;;;-1.36;61.42;94282.94;4992058;28;20553;-39
2023/01/20 06:08:40;;;;;;;0.80;0.80;;;-0.10;72.80;;;-1.36;61.33;94283.75;4991553;28;20534;-38
2023/01/20 06:11:08;;;;;;;0.70;0.70;;;-0.10;72.80;;;-1.35;61.29;94297.44;4992046;28;20539;-40
2023/01/20 06:13:35;;;;;;;0.80;0.80;;;-0.10;72.90;;;-1.36;61.65;94309.47;4994695;28;20652;-38
2023/01/20 06:16:02;;;;;;;0.70;0.70;;;-0.10;72.80;;;-1.38;61.56;94308.81;5062753;28;20194;-40
2023/01/20 06:18:33;;;;;;;0.80;0.80;;;-0.10;72.90;;;-1.37;61.38;94309.63;4995360;28;20232;-38
2023/01/20 06:21:00;;;;;;;0.80;0.80;;;-0.10;72.80;;;-1.35;61.41;94315.44;4995338;28;20194;-40
2023/01/20 06:23:27;;;;;;;0.80;0.80;;;-0.10;73.10;;;-1.37;61.50;94320.72;4995061;28;20285;-40
2023/01/20 06:26:00;;;;;;;0.90;0.90;;;-0.10;73.10;;;-1.36;61.44;94316.41;4995169;28;20237;-40
2023/01/20 06:28:28;;;;;;;0.90;0.90;;;-0.10;73.10;;;-1.37;61.13;94320.72;4995205;28;20630;-40
2023/01/20 06:31:13;;;;;;;0.80;0.80;;;-0.10;72.90;;;-1.38;61.46;94329.41;4995115;28;20283;-39
2023/01/20 06:33:41;;;;;;;0.80;0.80;;;-0.10;73.00;;;-1.40;61.64;94325.31;4994975;28;20193;-36
2023/01/20 06:36:14;;;;;;;0.70;0.70;;;-0.10;73.00;;;-1.42;61.45;94328.03;5061944;28;20202;-37
2023/01/20 06:38:47;;;;;;;0.70;0.70;;;-0.20;72.90;;;-1.43;61.42;94331.53;4995151;28;20213;-39
2023/01/20 06:41:14;;;;;;;0.70;0.70;;;-0.10;72.80;;;-1.48;61.22;94333.69;4995047;28;20193;-40
2023/01/20 06:43:41;;;;;;;0.80;0.80;;;-0.10;72.90;;;-1.50;61.81;94344.13;4994762;28;20633;-40
2023/01/20 06:46:14;;;;;;;0.80;0.80;;;-0.20;72.90;;;-1.50;61.70;94344.13;4994836;28;20703;-38
2023/01/20 06:48:43;;;;;;;0.80;0.80;;;-0.10;73.00;;;-1.52;62.19;94351.16;4995112;28;20190;-39
2023/01/20 06:51:14;;;;;;;0.80;0.80;;;-0.20;73.00;;;-1.50;61.72;94351.84;4994740;28;20218;-40
2023/01/20 06:53:42;;;;;;;0.70;0.70;;;-0.20;72.80;;;-1.46;61.65;94365.25;4994636;28;20691;-39
2023/01/20 06:56:12;;;;;;;0.70;0.70;;;-0.10;73.00;;;-1.46;61.69;94366.06;5062251;28;20194;-37
2023/01/20 06:58:40;;;;;;;0.77;0.77;;;-0.10;72.80;;;-1.45;61.62;94372.81;4994912;28;20189;-36
2023/01/20 07:01:11;;;;;;;0.80;0.80;;;-0.10;72.80;;;-1.41;61.10;94386.25;4994948;28;20220;-36
2023/01/20 07:03:45;;;;;;;0.90;0.90;;;-0.10;72.60;;;-1.40;61.28;94379.31;4994763;28;20614;-40
2023/01/20 07:06:21;;;;;;;0.80;0.80;;;0.00;72.60;;;-1.38;61.17;94383.41;4994851;28;20187;-39
2023/01/20 07:08:48;;;;;;;0.80;0.80;;;0.00;72.50;;;-1.35;61.41;94393.44;5062048;28;20178;-40
2023/01/20 07:11:15;;;;;;;0.90;0.90;;;0.00;72.50;;;-1.31;61.13;94389.66;5061509;28;20218;-39
2023/01/20 07:13:43;;;;;;;0.80;0.80;;;0.00;72.50;;;-1.26;61.35;94393.59;5061893;28;20203;-39
2023/01/20 07:16:10;;;;;;;0.80;0.80;;;0.10;72.60;;;-1.21;61.43;94386.28;5079036;28;20683;-40
2023/01/20 07:18:42;;;;;;;0.90;0.90;;;0.10;72.70;;;-1.15;61.43;94388.31;4993679;28;20183;-39
2023/01/20 07:21:11;;;;;;;0.80;0.80;;;0.20;72.80;;;-1.10;61.28;94395.66;4994286;28;20533;-40
2023/01/20 07:23:38;;;;;;;0.90;0.90;;;0.20;72.90;;;-1.04;61.19;94397.69;4994145;28;20189;-40
2023/01/20 07:26:21;;;;;;;0.80;0.80;;;0.20;72.80;;;-1.00;61.21;94386.16;4994139;28;20241;-40
2023/01/20 07:28:48;;;;;;;0.70;0.70;;;0.20;72.80;;;-0.95;61.13;94380.63;5060916;28;20201;-39
2023/01/20 07:31:23;;;;;;;0.80;0.80;;;0.30;72.90;;;-0.92;60.88;94383.75;4994317;28;20218;-40
2023/01/20 07:33:53;;;;;;;0.70;0.70;;;0.30;72.80;;;-0.95;61.12;94385.78;4994288;28;20196;-40
2023/01/20 07:36:20;;;;;;;0.90;0.90;;;0.30;72.80;;;-0.96;61.11;94387.53;4994273;28;20190;-40
2023/01/20 07:38:49;;;;;;;0.70;0.70;;;0.30;72.90;;;-0.95;61.30;94378.03;5061274;28;20657;-40
2023/01/20 07:41:18;;;;;;;0.82;0.82;;;0.30;73.10;;;-1.01;61.52;94382.00;5061112;28;20221;-38
2023/01/20 07:43:48;;;;;;;0.90;0.90;;;0.20;73.10;;;-1.03;61.79;94379.53;4993906;28;20228;-40
2023/01/20 07:46:16;;;;;;;0.73;0.73;;;0.20;73.30;;;-1.01;62.00;94385.38;5044935;28;20194;-39
2023/01/20 07:48:44;;;;;;;0.80;0.80;;;0.20;73.40;;;-1.00;61.70;94391.31;4994390;28;20202;-38
2023/01/20 07:51:14;;;;;;;0.90;0.90;;;0.20;73.50;;;-0.97;62.03;94391.88;5060491;28;20255;-38
2023/01/20 07:53:46;;;;;;;0.80;0.80;;;0.20;73.70;;;-0.94;62.10;94392.56;4993896;28;20222;-40
2023/01/20 07:56:20;;;;;;;0.80;0.80;;;0.20;73.80;;;-0.88;61.84;94382.53;4977013;28;20190;-40
2023/01/20 07:58:49;;;;;;;0.70;0.70;;;0.20;73.80;;;-0.79;62.07;94385.22;5044911;28;20208;-38
2023/01/20 08:01:31;;;;;;;0.80;0.80;;;0.20;73.90;;;-0.72;61.93;94386.31;4993838;28;20198;-38
2023/01/20 08:03:59;;;;;;;0.70;0.70;;;0.20;73.90;;;-0.66;61.68;94390.94;5060004;28;20527;-40
2023/01/20 08:06:27;;;;;;;0.80;0.80;;;0.30;73.90;;;-0.57;61.50;94379.03;4993777;28;20221;-40
2023/01/20 08:08:55;;;;;;;0.80;0.80;;;0.30;73.90;;;-0.49;60.94;94379.13;4992822;28;20208;-40
2023/01/20 08:11:24;;;;;;;0.90;0.90;;;0.30;73.70;;;-0.39;61.03;94379.13;4961455;28;20559;-40
2023/01/20 08:13:53;;;;;;;0.80;0.80;;;0.40;73.80;;;-0.33;61.15;94373.41;4993364;28;20528;-40
2023/01/20 08:16:20;;;;;;;0.80;0.80;;;0.40;73.80;;;-0.26;61.20;94373.69;5061021;28;20197;-39
2023/01/20 08:18:48;;;;;;;0.80;0.80;;;0.50;73.80;;;-0.15;60.75;94375.28;4993455;28;20222;-40
2023/01/20 08:21:17;;;;;;;0.80;0.80;;;0.60;73.70;;;-0.08;60.75;94369.44;4993508;28;20202;-40
2023/01/20 08:23:44;;;;;;;0.90;0.90;;;0.70;73.60;;;-0.02;60.45;94363.72;4976292;28;20202;-39
2023/01/20 08:26:11;;;;;;;0.80;0.80;;;0.80;73.60;;;0.09;60.61;94361.94;4993305;28;20261;-39
2023/01/20 08:28:38;;;;;;;0.82;0.82;;;0.90;73.60;;;0.18;60.21;94366.22;4993788;28;20206;-39
2023/01/20 08:31:18;;;;;;;0.73;0.73;;;1.00;73.50;;;0.27;60.21;94369.72;4993247;28;20247;-37
2023/01/20 08:33:50;;;;;;;0.80;0.80;;;1.10;73.20;;;0.36;60.20;94371.44;4993567;28;20220;-40
2023/01/20 08:36:22;;;;;;;0.70;0.70;;;1.10;73.20;;;0.44;59.96;94368.16;4992912;28;20252;-40
2023/01/20 08:38:49;;;;;;;0.70;0.70;;;1.30;73.10;;;0.54;59.73;94368.94;5060668;28;20178;-40
2023/01/20 08:41:22;;;;;;;0.70;0.70;;;1.40;73.20;;;0.67;59.85;94372.94;4993169;28;20240;-40
2023/01/20 08:43:50;;;;;;;0.70;0.70;;;1.40;73.10;;;0.79;59.75;94375.19;4992992;28;20186;-40
2023/01/20 08:46:19;;;;;;;0.70;0.70;;;1.50;73.00;;;0.92;59.41;94387.72;4993501;28;20255;-39
2023/01/20 08:48:48;;;;;;;0.80;0.80;;;1.60;73.00;;;1.03;59.50;94389.28;5059948;28;20197;-38
2023/01/20 08:51:23;;;;;;;0.70;0.70;;;1.80;73.10;;;1.11;58.82;94393.72;4993302;28;20245;-39
2023/01/20 08:53:51;;;;;;;0.80;0.80;;;1.80;72.60;;;1.17;58.85;94397.50;4992878;28;20190;-40
2023/01/20 08:56:19;;;;;;;0.80;0.80;;;1.90;72.50;;;1.23;58.67;94407.25;5059999;28;20216;-38
2023/01/20 08:58:47;;;;;;;0.70;0.70;;;2.00;72.20;;;1.27;58.63;94411.97;4992912;28;20195;-40
2023/01/20 09:01:18;;;;;;;0.80;0.80;;;2.00;72.30;;;1.34;58.47;94421.72;5059814;28;20202;-40
2023/01/20 09:03:46;;;;;;;0.80;0.80;;;2.10;72.00;;;1.36;57.99;94432.72;4993111;28;20198;-39
2023/01/20 09:06:40;;;;;;;0.80;0.80;;;2.20;71.70;;;1.36;57.64;94437.91;5036275;28;20609;-39
2023/01/20 09:09:08;;;;;;;0.85;0.85;;;2.20;71.30;;;1.33;57.88;94439.00;4993089;28;20244;-39
2023/01/20 09:11:35;;;;;;;0.80;0.80;;;2.20;71.50;;;1.30;57.39;94443.66;5059824;28;20240;-40
2023/01/20 09:14:03;;;;;;;0.77;0.77;;;2.20;71.20;;;1.28;57.57;94436.84;4992499;28;20263;-38
2023/01/20 09:16:31;;;;;;;0.80;0.80;;;2.20;71.30;;;1.26;57.86;94443.94;5059373;28;20214;-40
2023/01/20 09:18:58;;;;;;;0.70;0.70;;;2.20;71.40;;;1.26;57.89;94437.97;5059704;28;20554;-40
2023/01/20 09:21:25;;;;;;;0.90;0.90;;;2.20;71.50;;;1.27;57.91;94440.38;5043485;28;20202;-40
2023/01/20 09:23:53;;;;;;;0.80;0.80;;;2.20;71.30;;;1.24;57.77;94445.03;4992479;28;20186;-40
2023/01/20 09:26:20;;;;;;;0.80;0.80;;;2.10;71.20;;;1.27;57.86;94448.16;4992350;28;20248;-39
2023/01/20 09:29:07;;;;;;;0.70;0.70;;;2.10;71.50;;;1.27;57.80;94458.47;4992889;28;20190;-40
2023/01/20 09:31:42;;;;;;;0.90;0.90;;;2.20;71.40;;;1.30;57.44;94453.97;4992725;28;20202;-40
2023/01/20 09:34:20;;;;;;;0.80;0.80;;;2.20;71.30;;;1.31;57.74;94459.00;4992343;28;20215;-40
2023/01/20 09:36:56;;;;;;;0.82;0.82;;;2.20;71.40;;;1.32;57.63;94465.78;5055843;28;20239;-38
2023/01/20 09:45:36;;;;;;;0.80;0.80;;;2.20;71.40;;;1.35;58.13;94465.50;5059869;28;20198;-40
2023/01/20 09:54:55;;;;;;;0.70;0.70;;;2.40;71.70;;;1.53;58.29;94493.13;4995968;28;20186;-40
2023/01/20 09:57:26;;;;;;;0.80;0.80;;;2.40;71.50;;;1.59;58.10;94495.94;4995693;28;20617;-38
2023/01/20 10:00:08;;;;;;;0.70;0.70;;;2.40;71.40;;;1.65;57.91;94491.13;5063196;28;20183;-40
2023/01/20 10:02:36;;;;;;;0.80;0.80;;;2.50;71.50;;;1.71;57.84;94493.94;4995535;28;20630;-38
2023/01/20 10:05:12;;;;;;;0.70;0.70;;;2.50;71.40;;;1.81;57.92;94499.06;5062889;28;20195;-40
2023/01/20 10:08:10;;;;;;;0.70;0.70;;;2.60;71.70;;;1.90;57.86;94499.94;5063338;28;20545;-40
2023/01/20 10:10:54;;;;;;;0.80;0.80;;;2.70;71.80;;;2.03;58.31;94494.38;5062998;28;20299;-40
2023/01/20 10:13:31;;;;;;;0.70;0.70;;;2.80;71.60;;;2.14;57.17;94496.72;4995467;28;20198;-40
2023/01/20 10:16:05;;;;;;;0.80;0.80;;;2.90;71.30;;;2.23;57.57;94492.44;4995250;28;20178;-41
2023/01/20 10:18:58;;;;;;;0.70;0.70;;;3.00;71.00;;;2.37;57.20;94488.50;5059729;28;20185;-39
2023/01/20 10:21:40;;;;;;;0.70;0.70;;;3.10;71.00;;;2.49;57.08;94486.44;5062900;28;20190;-39
2023/01/20 10:24:28;;;;;;;0.80;0.80;;;3.20;71.10;;;2.63;56.76;94495.44;5046553;28;20193;-40
2023/01/20 10:27:03;;;;;;;0.80;0.80;;;3.30;71.20;;;2.74;57.08;94490.00;5062327;28;20238;-40
2023/01/20 10:29:36;;;;;;;0.70;0.70;;;3.50;71.30;;;2.86;56.67;94487.97;4995329;28;20186;-40
2023/01/20 10:32:38;;;;;;;0.70;0.70;;;3.50;72.20;;;2.97;56.74;94489.47;4995099;28;20276;-36
2023/01/20 10:35:16;;;;;;;0.82;0.82;;;3.60;72.10;;;3.11;56.58;94495.81;4997246;28;20663;-37
2023/01/20 10:37:44;;;;;;;0.80;0.80;;;3.80;71.20;;;3.23;56.78;94481.63;4995367;28;20195;-40
2023/01/20 10:40:36;;;;;;;0.80;0.80;;;3.90;71.60;;;3.36;56.53;94486.38;5062568;28;20520;-40
2023/01/20 10:43:13;;;;;;;0.80;0.80;;;4.00;71.00;;;3.43;55.58;94482.19;4995338;28;20183;-40
2023/01/20 10:45:58;;;;;;;0.70;0.70;;;4.20;70.10;;;3.52;56.53;94483.00;5062320;28;20206;-40
2023/01/20 10:49:03;;;;;;;0.75;0.75;;;4.30;70.70;;;3.59;56.40;94480.56;4994927;28;20190;-40
2023/01/20 10:51:51;;;;;;;0.80;0.80;;;4.40;70.60;;;3.61;55.64;94484.63;4994723;28;20228;-38
2023/01/20 10:54:38;;;;;;;0.80;0.80;;;4.50;69.70;;;3.64;55.81;94486.13;4994746;28;20247;-40
2023/01/20 10:57:12;;;;;;;0.70;0.70;;;4.60;69.90;;;3.63;55.38;94481.88;4994889;28;20178;-39
2023/01/20 10:59:53;;;;;;;0.70;0.70;;;4.60;69.60;;;3.62;55.83;94477.66;5061828;28;20186;-40
2023/01/20 11:02:33;;;;;;;0.80;0.80;;;4.60;69.70;;;3.59;55.43;94476.22;5062160;28;20178;-40